Time;durP1;ratioP1;P1;durP2;ratioP2;P2;SDS_P1;SDS_P2;PMS_P1;PMS_P2;Temp;Humidity;BMP_temperature;BMP_pressure;BME280_temperature;BME280_humidity;BME280_pressure;Samples;Min_cycle;Max_cycle;Signal;HPM_P1;HPM_P2
2021/12/05 00:18:36;;;;;;;10.87;7.37;;;13.80;55.80;;;;;;5115093;28;20480;-80
2021/12/05 00:21:26;;;;;;;11.33;7.60;;;13.80;55.80;;;;;;5112675;28;20440;-79
2021/12/05 00:23:59;;;;;;;10.50;7.87;;;13.80;56.00;;;;;;5113971;28;20444;-80
2021/12/05 00:26:28;;;;;;;10.73;7.10;;;13.80;55.80;;;;;;5113843;28;20464;-79
2021/12/05 00:29:17;;;;;;;15.00;7.30;;;13.80;56.00;;;;;;5115873;28;20478;-80
2021/12/05 00:34:47;;;;;;;12.30;7.70;;;13.90;56.00;;;;;;5110557;28;20440;-79
2021/12/05 00:46:01;;;;;;;8.03;6.20;;;13.90;56.00;;;;;;5122886;28;20466;-80
2021/12/05 00:59:57;;;;;;;9.40;6.57;;;13.90;56.10;;;;;;5127038;27;20485;-80
2021/12/05 01:02:54;;;;;;;8.60;6.40;;;13.90;56.10;;;;;;5128769;28;20472;-79
2021/12/05 01:06:08;;;;;;;10.80;7.00;;;13.90;56.10;;;;;;5119456;28;20474;-80
2021/12/05 01:11:21;;;;;;;7.90;6.13;;;13.90;56.10;;;;;;5120413;28;20518;-79
2021/12/05 01:14:02;;;;;;;9.27;6.77;;;13.90;56.00;;;;;;5120241;28;20875;-79
2021/12/05 01:16:30;;;;;;;7.50;5.70;;;13.90;56.00;;;;;;5120286;28;20499;-79
2021/12/05 01:18:59;;;;;;;8.23;5.83;;;13.90;56.00;;;;;;5120249;28;20432;-79
2021/12/05 01:21:27;;;;;;;12.30;6.27;;;13.90;56.00;;;;;;5119552;28;20543;-79
2021/12/05 01:24:02;;;;;;;8.70;6.70;;;13.90;56.00;;;;;;5119508;28;20483;-79
2021/12/05 01:26:36;;;;;;;9.57;6.20;;;13.90;56.10;;;;;;5119861;28;20450;-79
2021/12/05 01:29:18;;;;;;;10.00;6.37;;;13.90;56.10;;;;;;5119962;28;20412;-80
2021/12/05 01:31:56;;;;;;;9.10;6.43;;;13.80;55.90;;;;;;5119576;28;20466;-80
2021/12/05 01:37:20;;;;;;;8.27;5.60;;;13.80;55.90;;;;;;5119089;27;20508;-80
2021/12/05 01:40:03;;;;;;;7.70;6.07;;;13.80;56.20;;;;;;5117735;28;20483;-80
2021/12/05 01:43:05;;;;;;;7.33;5.90;;;13.80;56.00;;;;;;5119376;28;20460;-79
2021/12/05 01:46:10;;;;;;;9.53;6.10;;;13.80;56.00;;;;;;5119698;28;20494;-80
2021/12/05 01:49:06;;;;;;;7.23;5.90;;;13.80;56.00;;;;;;5119657;28;20428;-80
2021/12/05 02:00:28;;;;;;;8.57;5.60;;;13.80;56.10;;;;;;5098339;28;20504;-80
2021/12/05 02:11:36;;;;;;;7.00;5.70;;;13.80;56.10;;;;;;5119239;28;20462;-79
2021/12/05 02:44:14;;;;;;;7.80;4.90;;;13.80;56.20;;;;;;5110411;27;20506;-80
2021/12/05 02:46:45;;;;;;;6.03;5.33;;;13.90;56.20;;;;;;5112108;28;20522;-79
2021/12/05 02:49:15;;;;;;;5.93;4.83;;;13.90;56.30;;;;;;5091802;28;20520;-80
2021/12/05 02:51:50;;;;;;;5.50;4.77;;;13.90;56.20;;;;;;5091182;28;20469;-80
2021/12/05 02:54:19;;;;;;;6.23;5.30;;;13.90;56.40;;;;;;5091342;28;20484;-78
2021/12/05 02:56:49;;;;;;;5.60;4.50;;;13.90;56.40;;;;;;5090160;28;20482;-79
2021/12/05 02:59:23;;;;;;;7.27;4.50;;;13.90;56.40;;;;;;5089881;28;20457;-78
2021/12/05 03:01:56;;;;;;;6.80;4.93;;;13.90;56.50;;;;;;5089851;28;20508;-79
2021/12/05 03:04:26;;;;;;;5.40;4.80;;;13.90;56.30;;;;;;5097893;28;20440;-79
2021/12/05 03:06:55;;;;;;;5.03;4.50;;;13.90;56.30;;;;;;5109779;28;20539;-78
2021/12/05 03:09:24;;;;;;;4.70;4.30;;;13.90;56.30;;;;;;5109541;28;20478;-78
2021/12/05 03:11:52;;;;;;;6.87;4.53;;;13.90;56.40;;;;;;5109140;28;20514;-78
2021/12/05 03:14:21;;;;;;;6.90;5.00;;;13.90;56.40;;;;;;5109638;28;20428;-78
2021/12/05 03:16:50;;;;;;;5.43;4.77;;;13.90;56.40;;;;;;5109251;28;20483;-79
2021/12/05 03:19:18;;;;;;;4.90;4.47;;;13.90;56.40;;;;;;5107226;28;20432;-78
2021/12/05 03:21:47;;;;;;;6.27;4.73;;;13.90;56.40;;;;;;5106846;28;20466;-78
2021/12/05 03:24:17;;;;;;;5.00;4.50;;;13.90;56.30;;;;;;5109373;28;20531;-78
2021/12/05 03:26:50;;;;;;;5.27;4.77;;;13.90;56.20;;;;;;5109271;28;20519;-78
2021/12/05 03:29:18;;;;;;;6.93;4.30;;;13.90;56.20;;;;;;5109393;28;20484;-78
2021/12/05 03:31:48;;;;;;;6.80;4.80;;;13.90;56.30;;;;;;5109254;28;20482;-78
2021/12/05 03:34:17;;;;;;;6.33;4.60;;;13.90;56.40;;;;;;5107458;28;21047;-78
2021/12/05 03:36:46;;;;;;;5.30;4.80;;;13.90;56.40;;;;;;5108971;28;20456;-79
2021/12/05 03:39:14;;;;;;;5.77;4.50;;;13.90;56.40;;;;;;5129515;28;20518;-78
2021/12/05 03:41:42;;;;;;;4.73;4.33;;;14.00;56.40;;;;;;5129421;27;20439;-78
2021/12/05 03:44:11;;;;;;;5.57;4.67;;;13.90;56.30;;;;;;5121287;28;20868;-78
2021/12/05 03:46:39;;;;;;;4.80;4.27;;;14.00;56.40;;;;;;5115769;28;20432;-78
2021/12/05 03:49:10;;;;;;;4.57;4.17;;;14.00;56.40;;;;;;5115842;28;20489;-78
2021/12/05 03:51:41;;;;;;;8.50;4.57;;;14.00;56.30;;;;;;5115929;28;20499;-79
2021/12/05 03:54:09;;;;;;;5.40;4.90;;;14.00;56.40;;;;;;5107809;28;20571;-79
2021/12/05 03:56:37;;;;;;;6.47;4.67;;;14.00;56.40;;;;;;5075449;28;20451;-79
2021/12/05 03:59:05;;;;;;;5.37;4.57;;;14.00;56.50;;;;;;5075812;28;20456;-79
2021/12/05 04:01:33;;;;;;;5.47;4.97;;;14.00;56.50;;;;;;5075930;28;20622;-79
2021/12/05 04:04:02;;;;;;;5.20;4.70;;;14.00;56.50;;;;;;5075937;28;20557;-79
2021/12/05 04:06:31;;;;;;;7.00;5.07;;;14.00;56.50;;;;;;5075667;28;20525;-79
2021/12/05 04:09:01;;;;;;;5.50;4.63;;;14.00;56.40;;;;;;5075185;28;20529;-79
2021/12/05 04:11:35;;;;;;;4.70;4.23;;;14.00;56.50;;;;;;5074884;28;20444;-79
2021/12/05 04:14:03;;;;;;;6.77;5.07;;;14.00;56.40;;;;;;5078032;28;20555;-79
2021/12/05 04:16:31;;;;;;;5.20;4.70;;;14.00;56.60;;;;;;5094733;28;20524;-79
2021/12/05 04:19:00;;;;;;;5.00;4.07;;;14.00;56.50;;;;;;5095055;28;20432;-79
2021/12/05 04:21:29;;;;;;;7.93;4.70;;;14.00;56.40;;;;;;5095470;28;20528;-79
2021/12/05 04:23:59;;;;;;;6.80;4.20;;;14.00;56.50;;;;;;5095242;28;20480;-79
2021/12/05 04:26:27;;;;;;;4.73;4.23;;;14.00;56.50;;;;;;5094978;28;20528;-79
2021/12/05 04:28:55;;;;;;;5.70;4.30;;;14.00;56.50;;;;;;5087291;28;20528;-79
2021/12/05 04:31:23;;;;;;;6.63;4.40;;;14.00;56.50;;;;;;5075009;28;20446;-79
2021/12/05 04:33:51;;;;;;;5.50;4.43;;;14.00;56.50;;;;;;5075047;28;20479;-79
2021/12/05 04:36:19;;;;;;;4.40;4.00;;;14.00;56.50;;;;;;5074723;28;20509;-79
2021/12/05 04:38:48;;;;;;;5.43;4.33;;;14.00;56.50;;;;;;5074715;28;20438;-79
2021/12/05 04:41:17;;;;;;;5.53;4.60;;;14.00;56.60;;;;;;5074781;28;20525;-79
2021/12/05 04:43:46;;;;;;;4.50;4.10;;;14.00;56.50;;;;;;5075009;28;20493;-78
2021/12/05 04:46:16;;;;;;;5.10;4.20;;;14.00;56.50;;;;;;5074570;28;20503;-79
2021/12/05 04:48:47;;;;;;;4.93;4.43;;;14.00;56.60;;;;;;5074496;28;20512;-79
2021/12/05 04:51:15;;;;;;;5.37;4.70;;;14.00;56.60;;;;;;5074542;28;20453;-79
2021/12/05 04:53:43;;;;;;;4.60;4.20;;;14.00;56.60;;;;;;5073771;28;20521;-79
2021/12/05 04:56:11;;;;;;;4.40;4.00;;;14.00;56.60;;;;;;5073162;28;20529;-78
2021/12/05 04:58:40;;;;;;;5.17;4.67;;;14.00;56.50;;;;;;5074508;28;20556;-79
2021/12/05 05:01:08;;;;;;;4.77;4.10;;;14.00;56.60;;;;;;5082069;28;20531;-79
2021/12/05 05:03:37;;;;;;;5.07;4.20;;;14.00;56.60;;;;;;5101378;28;20451;-79
2021/12/05 05:06:09;;;;;;;5.30;3.97;;;14.00;56.60;;;;;;5099774;28;20460;-79
2021/12/05 05:08:37;;;;;;;4.20;3.83;;;14.00;56.80;;;;;;5074611;28;20414;-79
2021/12/05 05:11:07;;;;;;;4.63;4.23;;;14.00;56.70;;;;;;5074129;28;20441;-79
2021/12/05 05:13:35;;;;;;;3.60;3.30;;;14.00;57.20;;;;;;5073741;28;20477;-79
2021/12/05 05:16:07;;;;;;;4.70;4.20;;;14.00;56.60;;;;;;5074087;28;20465;-79
2021/12/05 05:18:41;;;;;;;4.70;4.20;;;14.00;56.70;;;;;;5082271;28;20429;-79
2021/12/05 05:21:16;;;;;;;5.53;4.13;;;14.00;56.60;;;;;;5093904;28;20524;-78
2021/12/05 05:24:02;;;;;;;5.20;4.30;;;14.00;56.60;;;;;;5093695;28;20604;-79
2021/12/05 05:29:51;;;;;;;4.57;4.13;;;14.00;56.60;;;;;;5055267;28;20506;-79
2021/12/05 05:43:50;;;;;;;4.40;4.00;;;14.00;56.60;;;;;;5093627;28;20460;-79
2021/12/05 05:46:20;;;;;;;4.77;4.13;;;14.00;56.70;;;;;;5094928;28;20531;-79
2021/12/05 05:48:56;;;;;;;4.60;4.20;;;14.00;56.70;;;;;;5094894;28;20417;-79
2021/12/05 05:51:24;;;;;;;4.10;3.80;;;14.00;56.80;;;;;;5094498;28;20492;-79
2021/12/05 05:53:52;;;;;;;4.73;4.20;;;14.00;56.80;;;;;;5094593;28;20486;-79
2021/12/05 05:56:24;;;;;;;4.10;3.70;;;14.00;56.80;;;;;;5094413;28;20540;-79
2021/12/05 05:58:56;;;;;;;4.43;4.03;;;14.00;56.80;;;;;;5093627;28;20527;-79
2021/12/05 06:01:44;;;;;;;4.50;4.10;;;14.00;56.70;;;;;;5093665;28;20512;-79
2021/12/05 06:04:13;;;;;;;4.77;4.30;;;14.00;56.60;;;;;;5093959;28;20506;-79
2021/12/05 06:06:42;;;;;;;5.00;4.50;;;14.00;56.60;;;;;;5093511;28;20465;-79
2021/12/05 06:09:10;;;;;;;4.83;3.90;;;14.00;56.60;;;;;;5090559;28;20453;-79
2021/12/05 06:11:38;;;;;;;4.23;3.80;;;14.00;57.10;;;;;;5073244;28;20548;-79
2021/12/05 06:14:06;;;;;;;5.13;4.43;;;14.00;56.60;;;;;;5073612;28;20556;-79
2021/12/05 06:16:34;;;;;;;4.33;3.93;;;14.00;56.60;;;;;;5073828;28;20446;-79
2021/12/05 06:19:02;;;;;;;6.13;4.50;;;14.00;56.50;;;;;;5073832;28;20437;-79
2021/12/05 06:21:32;;;;;;;5.20;4.67;;;14.00;56.50;;;;;;5072797;28;20466;-79
2021/12/05 06:24:00;;;;;;;4.27;3.87;;;14.00;56.60;;;;;;5072454;28;20536;-79
2021/12/05 06:26:28;;;;;;;5.23;4.30;;;14.00;56.60;;;;;;5089358;28;20449;-79
2021/12/05 06:29:05;;;;;;;4.83;4.30;;;14.00;56.60;;;;;;5093606;28;20519;-79
2021/12/05 06:31:50;;;;;;;5.23;4.73;;;14.00;56.50;;;;;;5093926;28;20417;-79
2021/12/05 06:37:31;;;;;;;4.50;4.10;;;14.00;56.40;;;;;;5093969;28;21009;-79
2021/12/05 06:42:54;;;;;;;4.80;4.23;;;14.00;56.50;;;;;;5093394;28;20551;-79
2021/12/05 06:48:08;;;;;;;4.50;4.00;;;13.90;56.40;;;;;;5073987;28;20486;-78
2021/12/05 06:50:36;;;;;;;5.00;4.00;;;13.90;56.50;;;;;;5074442;28;20473;-79
2021/12/05 06:53:07;;;;;;;5.67;4.60;;;14.00;56.60;;;;;;5074331;28;20482;-79
2021/12/05 06:55:35;;;;;;;4.50;3.93;;;14.00;56.60;;;;;;5074058;28;20464;-79
2021/12/05 06:58:03;;;;;;;6.20;4.47;;;14.00;56.50;;;;;;5074239;28;20880;-80
2021/12/05 07:00:31;;;;;;;4.63;3.90;;;14.00;56.50;;;;;;5075723;28;20440;-79
2021/12/05 07:02:59;;;;;;;4.70;4.00;;;14.00;56.40;;;;;;5097127;28;20463;-80
2021/12/05 07:05:49;;;;;;;4.00;3.70;;;14.00;56.50;;;;;;5100849;28;20429;-79
2021/12/05 07:08:20;;;;;;;4.10;3.80;;;14.00;56.40;;;;;;5095242;28;20457;-80
2021/12/05 07:10:56;;;;;;;4.43;4.03;;;14.00;56.40;;;;;;5103680;28;20475;-80
2021/12/05 07:13:55;;;;;;;4.30;3.60;;;14.00;56.60;;;;;;5096429;28;20449;-79
2021/12/05 07:16:28;;;;;;;5.47;4.03;;;14.00;56.50;;;;;;5095928;28;20486;-80
2021/12/05 07:19:17;;;;;;;5.27;4.13;;;14.00;56.50;;;;;;5097333;28;20435;-79
2021/12/05 07:21:49;;;;;;;5.20;4.13;;;14.00;56.60;;;;;;5099199;28;20460;-80
2021/12/05 07:24:32;;;;;;;5.87;3.93;;;14.00;56.60;;;;;;5115295;28;20490;-80
2021/12/05 07:40:18;;;;;;;5.10;4.30;;;14.00;56.40;;;;;;5120586;28;20492;-79
2021/12/05 07:41:07;;;;;;;5.00;4.43;;;14.00;56.40;;;;;;5099108;28;20421;-79
2021/12/05 07:43:34;;;;;;;4.80;3.93;;;14.00;56.50;;;;;;5099031;28;20613;-79
2021/12/05 07:46:06;;;;;;;4.07;3.67;;;14.00;56.50;;;;;;5101861;28;20464;-81
2021/12/05 07:48:36;;;;;;;4.50;4.20;;;14.00;56.50;;;;;;5102925;28;20421;-83
2021/12/05 07:51:10;;;;;;;7.13;4.07;;;14.00;56.40;;;;;;5101486;28;20504;-79
2021/12/05 07:53:41;;;;;;;4.03;3.63;;;14.00;56.50;;;;;;5099509;28;20564;-79
2021/12/05 07:56:15;;;;;;;6.00;3.70;;;14.00;56.50;;;;;;5098604;28;20563;-79
2021/12/05 07:58:55;;;;;;;4.70;4.30;;;14.00;56.50;;;;;;5099897;28;20488;-80
2021/12/05 08:15:14;;;;;;;3.93;3.63;;;14.10;56.50;;;;;;5078553;28;20458;-80
2021/12/05 08:17:49;;;;;;;6.63;4.03;;;14.10;56.60;;;;;;5078838;28;20514;-80
2021/12/05 08:20:17;;;;;;;5.40;3.83;;;14.10;56.60;;;;;;5078503;28;20508;-79
2021/12/05 08:22:46;;;;;;;4.97;4.47;;;14.10;56.50;;;;;;5092733;28;20488;-79
2021/12/05 08:25:14;;;;;;;3.40;3.10;;;14.20;57.20;;;;;;5094668;28;20452;-79
2021/12/05 08:27:49;;;;;;;5.10;3.80;;;14.20;56.50;;;;;;5098383;28;20987;-79
2021/12/05 08:30:26;;;;;;;4.70;3.73;;;14.10;56.60;;;;;;5102199;28;20530;-79
2021/12/05 08:33:13;;;;;;;5.20;3.50;;;14.20;56.80;;;;;;5104821;28;20878;-79
2021/12/05 08:36:09;;;;;;;4.17;3.73;;;14.20;56.70;;;;;;5106789;28;20559;-79
2021/12/05 08:41:50;;;;;;;3.50;3.30;;;14.20;56.70;;;;;;5106458;28;20425;-79
2021/12/05 08:44:55;;;;;;;3.70;3.40;;;14.20;56.70;;;;;;5105534;28;20437;-79
2021/12/05 09:26:37;;;;;;;3.10;2.90;;;14.30;57.00;;;;;;5096534;28;20486;-80
2021/12/05 09:40:35;;;;;;;4.20;3.80;;;14.40;57.00;;;;;;5075173;28;20526;-80
2021/12/05 09:52:40;;;;;;;3.80;3.40;;;14.40;57.10;;;;;;5077903;28;20445;-80
2021/12/05 10:03:32;;;;;;;4.07;3.67;;;14.50;57.10;;;;;;5077132;28;20468;-80
2021/12/05 10:08:52;;;;;;;3.97;3.57;;;14.50;57.20;;;;;;5097085;28;20433;-80
2021/12/05 10:17:12;;;;;;;4.30;3.90;;;14.50;57.30;;;;;;5096593;28;20493;-80
2021/12/05 10:20:15;;;;;;;4.33;3.33;;;14.50;57.10;;;;;;5097186;28;20445;-80
2021/12/05 10:34:24;;;;;;;3.70;3.40;;;14.50;57.30;;;;;;5027294;28;20447;-83
2021/12/05 10:37:06;;;;;;;3.67;3.40;;;14.50;57.30;;;;;;5044442;28;20541;-81
2021/12/05 10:39:34;;;;;;;4.03;3.50;;;14.60;57.30;;;;;;5084897;28;20483;-81
2021/12/05 10:42:34;;;;;;;4.07;3.67;;;14.60;57.40;;;;;;5117354;28;20510;-80
2021/12/05 10:45:02;;;;;;;5.70;3.40;;;14.60;57.30;;;;;;5118257;28;20416;-81
2021/12/05 10:47:37;;;;;;;3.63;3.00;;;14.60;57.20;;;;;;5079024;28;20980;-81
2021/12/05 10:50:32;;;;;;;3.60;2.93;;;14.60;57.30;;;;;;5111464;28;20439;-81
2021/12/05 10:53:34;;;;;;;6.20;3.57;;;14.60;57.30;;;;;;5118366;28;20595;-82
2021/12/05 10:56:05;;;;;;;4.10;3.50;;;14.60;57.30;;;;;;5112407;28;20516;-83
2021/12/05 10:58:38;;;;;;;4.07;3.67;;;14.60;57.30;;;;;;5106625;28;20416;-85
2021/12/05 11:01:12;;;;;;;4.30;3.83;;;14.60;57.30;;;;;;5087396;28;20438;-79
2021/12/05 11:03:41;;;;;;;5.40;3.83;;;14.70;57.50;;;;;;5094476;28;20471;-78
2021/12/05 11:06:19;;;;;;;6.53;4.20;;;14.60;57.30;;;;;;5099539;28;20425;-81
2021/12/05 11:08:48;;;;;;;6.03;3.77;;;14.70;57.30;;;;;;5105213;28;20527;-82
2021/12/05 11:11:17;;;;;;;4.30;3.90;;;14.70;57.30;;;;;;5099484;28;20520;-78
2021/12/05 11:13:46;;;;;;;7.13;4.17;;;14.70;57.20;;;;;;5098163;28;20514;-79
2021/12/05 11:16:34;;;;;;;3.97;3.67;;;14.70;57.20;;;;;;5103189;28;20495;-82
2021/12/05 11:19:04;;;;;;;10.47;3.73;;;14.70;57.00;;;;;;5100470;28;20462;-84
2021/12/05 11:21:45;;;;;;;14.23;4.13;;;15.10;64.50;;;;;;5091827;28;20445;-82
2021/12/05 11:24:17;;;;;;;14.63;4.90;;;16.10;66.00;;;;;;5080704;28;20548;-85
2021/12/05 11:26:47;;;;;;;10.87;5.97;;;16.80;66.80;;;;;;5080193;28;20428;-85
2021/12/05 11:29:22;;;;;;;29.43;8.63;;;17.20;63.50;;;;;;5082526;28;20445;-85
2021/12/05 11:31:54;;;;;;;17.90;9.07;;;17.10;60.00;;;;;;5082915;28;20444;-85
2021/12/05 11:34:29;;;;;;;26.03;9.87;;;16.90;59.00;;;;;;5101696;28;20966;-82
2021/12/05 11:36:57;;;;;;;27.63;9.73;;;16.80;59.40;;;;;;5107674;28;20495;-84
2021/12/05 11:39:26;;;;;;;23.00;9.80;;;16.70;59.00;;;;;;5080843;28;20457;-81
2021/12/05 11:41:55;;;;;;;22.73;9.40;;;16.60;58.70;;;;;;5079628;28;20437;-83
2021/12/05 11:44:25;;;;;;;10.77;6.70;;;16.50;58.20;;;;;;5102128;28;20464;-78
2021/12/05 11:46:53;;;;;;;8.67;5.47;;;16.60;60.40;;;;;;5098217;28;20452;-80
2021/12/05 11:49:22;;;;;;;15.60;7.87;;;17.20;61.70;;;;;;5100026;28;20464;-83
2021/12/05 11:51:52;;;;;;;21.20;8.40;;;17.20;58.00;;;;;;5101149;28;20977;-82
2021/12/05 11:54:21;;;;;;;22.83;9.43;;;17.00;57.70;;;;;;5086308;28;20543;-82
2021/12/05 11:57:11;;;;;;;28.37;13.70;;;16.90;58.00;;;;;;5100839;28;20457;-83
2021/12/05 11:59:41;;;;;;;22.17;12.00;;;16.80;58.20;;;;;;5102776;28;20421;-82
2021/12/05 12:02:11;;;;;;;20.73;11.93;;;16.70;57.20;;;;;;5102794;28;20516;-82
2021/12/05 12:04:43;;;;;;;20.97;12.17;;;16.50;57.20;;;;;;5092771;28;20438;-84
2021/12/05 12:07:23;;;;;;;29.40;12.20;;;16.50;57.00;;;;;;5079322;28;20429;-84
2021/12/05 12:09:52;;;;;;;30.93;15.00;;;16.20;56.40;;;;;;5096985;28;20433;-84
2021/12/05 12:12:20;;;;;;;28.03;15.63;;;16.20;56.80;;;;;;5098985;28;20457;-85
2021/12/05 12:14:49;;;;;;;21.93;11.87;;;16.20;56.80;;;;;;5102745;28;20421;-83
2021/12/05 12:17:18;;;;;;;27.00;12.80;;;16.20;56.50;;;;;;5104196;28;20496;-82
2021/12/05 12:19:46;;;;;;;21.27;10.93;;;16.10;55.80;;;;;;5115024;28;20478;-81
2021/12/05 12:22:16;;;;;;;14.90;10.60;;;16.10;55.70;;;;;;5123528;28;20428;-80
2021/12/05 12:24:44;;;;;;;25.63;9.80;;;16.10;55.50;;;;;;5122727;28;20428;-81
2021/12/05 12:27:13;;;;;;;22.43;11.13;;;16.10;55.10;;;;;;5102986;28;20538;-81
2021/12/05 12:29:41;;;;;;;19.00;9.70;;;16.10;55.10;;;;;;5100918;28;20432;-81
2021/12/05 12:32:12;;;;;;;14.30;9.90;;;16.10;55.20;;;;;;5114515;28;20439;-81
2021/12/05 12:34:40;;;;;;;15.83;9.70;;;16.10;54.90;;;;;;5118460;28;20446;-83
2021/12/05 12:37:09;;;;;;;21.10;9.50;;;16.00;54.80;;;;;;5127925;28;20464;-81
2021/12/05 12:39:38;;;;;;;19.73;9.20;;;15.90;54.30;;;;;;5091759;28;20453;-81
2021/12/05 12:42:19;;;;;;;18.90;9.80;;;15.90;54.90;;;;;;5102655;28;20502;-88
2021/12/05 12:45:22;;;;;;;14.83;9.77;;;15.90;54.80;;;;;;5103681;28;20428;-85
2021/12/05 12:47:54;;;;;;;21.80;10.57;;;15.90;54.80;;;;;;5101939;28;20419;-80
2021/12/05 12:50:34;;;;;;;27.23;13.93;;;15.80;55.00;;;;;;5076204;28;20418;-86
2021/12/05 12:53:11;;;;;;;25.70;15.00;;;15.90;55.20;;;;;;5079887;28;20449;-85
2021/12/05 12:55:41;;;;;;;23.37;13.10;;;15.80;55.20;;;;;;5109506;28;20441;-84
2021/12/05 12:58:10;;;;;;;17.37;10.63;;;15.70;55.10;;;;;;5104835;28;20511;-82
2021/12/05 13:00:41;;;;;;;32.50;17.73;;;15.70;55.20;;;;;;5097629;28;20472;-83
2021/12/05 13:03:27;;;;;;;23.47;14.23;;;15.70;55.20;;;;;;5121683;28;20451;-81
2021/12/05 13:11:50;;;;;;;9.90;5.63;;;15.70;55.30;;;;;;5078077;28;20473;-80
2021/12/05 13:14:18;;;;;;;11.13;5.80;;;16.10;58.40;;;;;;5078375;28;20457;-80
2021/12/05 13:16:47;;;;;;;11.93;6.00;;;16.30;57.60;;;;;;5100658;28;20476;-80
2021/12/05 13:19:19;;;;;;;18.90;6.13;;;16.40;57.40;;;;;;5104618;28;20524;-79
2021/12/05 13:21:54;;;;;;;10.27;5.60;;;16.40;57.40;;;;;;5083352;28;20450;-82
2021/12/05 13:24:27;;;;;;;18.53;5.37;;;16.40;57.30;;;;;;5078372;28;20410;-83
2021/12/05 13:27:01;;;;;;;9.80;4.93;;;16.30;57.30;;;;;;5086718;28;20409;-84
2021/12/05 13:29:29;;;;;;;8.93;5.40;;;16.30;57.30;;;;;;5101595;28;20893;-85
2021/12/05 13:32:05;;;;;;;11.90;5.27;;;16.30;57.30;;;;;;5113499;28;20436;-83
2021/12/05 13:34:45;;;;;;;8.53;4.83;;;16.30;57.20;;;;;;5099912;28;20451;-79
2021/12/05 13:37:30;;;;;;;9.23;5.50;;;16.20;57.20;;;;;;5088532;28;20492;-80
2021/12/05 13:40:12;;;;;;;7.30;4.93;;;16.20;57.20;;;;;;5097006;28;20425;-79
2021/12/05 13:42:44;;;;;;;11.40;4.77;;;16.20;57.20;;;;;;5094563;28;20541;-79
2021/12/05 13:45:21;;;;;;;14.20;5.67;;;16.10;57.20;;;;;;5097163;28;20457;-79
2021/12/05 13:48:15;;;;;;;9.30;5.10;;;16.10;57.20;;;;;;5091137;28;20441;-79
2021/12/05 13:50:46;;;;;;;10.90;4.67;;;16.00;57.20;;;;;;5076224;28;20441;-79
2021/12/05 13:53:23;;;;;;;5.60;4.60;;;16.00;57.30;;;;;;5096593;28;20511;-79
2021/12/05 13:56:14;;;;;;;9.00;4.70;;;15.90;57.30;;;;;;5105322;28;20482;-79
2021/12/05 13:58:48;;;;;;;13.30;5.43;;;15.90;57.40;;;;;;5095761;28;20500;-79
2021/12/05 14:01:24;;;;;;;7.40;4.90;;;15.90;57.40;;;;;;5093296;28;20873;-79
2021/12/05 14:04:08;;;;;;;9.33;4.83;;;15.80;57.50;;;;;;5086372;28;20461;-79
2021/12/05 14:06:49;;;;;;;7.70;4.77;;;15.80;57.40;;;;;;5073193;28;20917;-79
2021/12/05 14:09:19;;;;;;;10.37;4.53;;;15.80;57.60;;;;;;5073938;28;20417;-79
2021/12/05 14:11:50;;;;;;;7.70;4.50;;;15.80;57.60;;;;;;5072409;28;20532;-79
2021/12/05 14:14:19;;;;;;;10.73;4.93;;;15.80;57.70;;;;;;5081247;28;20542;-79
2021/12/05 14:16:48;;;;;;;7.97;4.30;;;15.70;57.50;;;;;;5098953;28;20481;-79
2021/12/05 14:19:23;;;;;;;6.80;4.80;;;15.70;57.60;;;;;;5100058;28;20428;-78
2021/12/05 14:21:54;;;;;;;5.43;4.23;;;15.70;57.80;;;;;;5100200;28;20529;-78
2021/12/05 14:24:23;;;;;;;7.47;4.63;;;15.70;57.60;;;;;;5092428;28;20406;-78
2021/12/05 14:26:53;;;;;;;7.13;4.40;;;15.70;57.80;;;;;;5092232;28;20523;-79
2021/12/05 14:29:22;;;;;;;5.90;4.40;;;15.60;57.60;;;;;;5093108;28;20531;-79
2021/12/05 14:31:52;;;;;;;12.13;4.37;;;15.60;57.70;;;;;;5094618;28;20444;-79
2021/12/05 14:34:31;;;;;;;8.57;5.27;;;15.60;57.70;;;;;;5094438;28;20485;-79
2021/12/05 14:37:01;;;;;;;7.30;4.27;;;15.60;57.70;;;;;;5094224;28;20508;-79
2021/12/05 14:39:30;;;;;;;6.70;4.17;;;15.60;57.70;;;;;;5085470;28;20532;-79
2021/12/05 14:41:59;;;;;;;5.43;4.20;;;15.60;57.90;;;;;;5096316;28;20444;-79
2021/12/05 14:44:28;;;;;;;4.90;4.30;;;15.60;57.80;;;;;;5099707;28;20456;-79
2021/12/05 14:47:01;;;;;;;8.63;4.37;;;15.60;57.80;;;;;;5098773;28;20456;-79
2021/12/05 14:49:31;;;;;;;8.80;4.33;;;15.60;57.80;;;;;;5098937;28;20437;-79
2021/12/05 14:52:01;;;;;;;4.63;4.07;;;15.60;57.80;;;;;;5098245;28;20951;-79
2021/12/05 14:54:32;;;;;;;7.73;4.63;;;15.50;57.70;;;;;;5093738;28;20488;-79
2021/12/05 14:57:00;;;;;;;7.00;3.97;;;15.50;57.80;;;;;;5075200;28;20410;-79
2021/12/05 14:59:28;;;;;;;6.23;3.93;;;15.50;57.90;;;;;;5075552;28;20556;-79
2021/12/05 15:01:57;;;;;;;4.23;3.83;;;15.50;57.90;;;;;;5077718;28;20438;-79
2021/12/05 15:04:29;;;;;;;6.27;4.00;;;15.50;58.00;;;;;;5078038;28;20479;-79
2021/12/05 15:06:57;;;;;;;5.77;4.03;;;15.50;58.00;;;;;;5086135;28;20495;-79
2021/12/05 15:09:30;;;;;;;5.37;4.13;;;15.50;58.00;;;;;;5100390;28;20443;-79
2021/12/05 15:12:01;;;;;;;8.00;4.67;;;15.40;57.90;;;;;;5098053;28;20484;-79
2021/12/05 15:14:29;;;;;;;7.13;3.87;;;15.40;57.90;;;;;;5096469;28;20809;-79
2021/12/05 15:16:59;;;;;;;7.23;4.23;;;15.40;58.00;;;;;;5112049;28;20486;-80
2021/12/05 15:19:28;;;;;;;5.90;3.70;;;15.40;57.90;;;;;;5106414;28;20468;-80
2021/12/05 15:21:56;;;;;;;5.37;4.10;;;15.40;57.90;;;;;;5106107;28;20436;-80
2021/12/05 15:24:27;;;;;;;4.30;4.00;;;15.40;58.00;;;;;;5105276;28;20433;-80
2021/12/05 15:26:58;;;;;;;6.87;4.20;;;15.40;58.00;;;;;;5104169;28;20440;-80
2021/12/05 15:29:28;;;;;;;6.70;4.70;;;15.40;58.00;;;;;;5102846;28;20441;-80
2021/12/05 15:32:18;;;;;;;6.73;4.10;;;15.40;58.10;;;;;;5099909;28;20516;-80
2021/12/05 15:34:49;;;;;;;7.43;4.63;;;15.40;58.10;;;;;;5102751;28;20417;-80
2021/12/05 15:37:17;;;;;;;5.50;4.10;;;15.40;58.10;;;;;;5104236;28;20424;-80
2021/12/05 15:39:46;;;;;;;5.07;4.10;;;15.30;58.00;;;;;;5103075;28;20464;-80
2021/12/05 15:42:18;;;;;;;4.27;3.87;;;15.30;57.90;;;;;;5108491;28;20463;-80
2021/12/05 15:44:47;;;;;;;7.33;3.80;;;15.30;58.00;;;;;;5103183;28;20469;-79
2021/12/05 15:47:17;;;;;;;4.17;3.77;;;15.30;58.00;;;;;;5107068;28;20428;-80
2021/12/05 15:49:48;;;;;;;5.03;3.53;;;15.30;57.90;;;;;;5104490;28;20457;-80
2021/12/05 15:52:16;;;;;;;4.53;3.90;;;15.30;58.00;;;;;;5108030;28;20942;-80
2021/12/05 15:54:44;;;;;;;4.40;4.00;;;15.30;58.00;;;;;;5108407;28;20425;-82
2021/12/05 15:57:24;;;;;;;5.47;3.33;;;15.30;57.90;;;;;;5106582;28;20536;-83
2021/12/05 15:59:52;;;;;;;5.37;3.77;;;15.30;58.00;;;;;;5111266;28;20497;-79
2021/12/05 16:02:20;;;;;;;3.80;3.40;;;15.30;58.00;;;;;;5098033;28;20477;-78
2021/12/05 16:04:49;;;;;;;5.00;4.10;;;15.20;58.00;;;;;;5103588;28;20429;-78
2021/12/05 16:07:17;;;;;;;8.20;4.13;;;15.20;57.90;;;;;;5098056;28;20476;-78
2021/12/05 16:09:46;;;;;;;4.30;3.73;;;15.20;57.90;;;;;;5098207;28;20429;-78
2021/12/05 16:12:15;;;;;;;9.10;3.60;;;15.30;57.90;;;;;;5098794;28;20472;-79
2021/12/05 16:14:46;;;;;;;5.03;3.70;;;15.20;57.80;;;;;;5098431;28;20591;-80
2021/12/05 16:17:22;;;;;;;4.50;3.70;;;15.20;57.90;;;;;;5098243;28;20465;-79
2021/12/05 16:20:06;;;;;;;4.30;3.90;;;15.20;57.90;;;;;;5092232;28;20563;-79
2021/12/05 16:22:34;;;;;;;3.47;3.20;;;15.10;57.80;;;;;;5094286;28;20824;-80
2021/12/05 16:25:16;;;;;;;5.23;3.83;;;15.20;58.00;;;;;;5098666;28;20479;-79
2021/12/05 16:27:48;;;;;;;3.87;3.57;;;15.20;58.00;;;;;;5098458;28;20413;-79
2021/12/05 16:30:22;;;;;;;3.93;3.63;;;15.20;57.90;;;;;;5097965;28;20895;-79
2021/12/05 16:32:52;;;;;;;4.27;3.87;;;15.20;57.80;;;;;;5097931;28;20486;-79
2021/12/05 16:35:31;;;;;;;4.13;3.83;;;15.20;57.80;;;;;;5097802;28;20448;-80
2021/12/05 16:37:59;;;;;;;4.30;4.00;;;15.20;57.90;;;;;;5088603;28;20533;-79
2021/12/05 16:40:27;;;;;;;5.23;3.23;;;15.10;57.70;;;;;;5077346;28;20504;-79
2021/12/05 16:43:07;;;;;;;5.23;3.50;;;15.10;57.80;;;;;;5077294;28;20477;-80
2021/12/05 16:45:37;;;;;;;3.63;3.30;;;15.10;57.80;;;;;;5091167;28;20978;-79
2021/12/05 16:48:05;;;;;;;4.37;4.00;;;15.10;57.90;;;;;;5094773;28;20772;-80
2021/12/05 16:50:34;;;;;;;5.50;4.13;;;15.10;57.90;;;;;;5077845;28;20516;-80
2021/12/05 16:53:01;;;;;;;4.70;3.70;;;15.10;57.80;;;;;;5096772;28;20491;-79
2021/12/05 16:55:30;;;;;;;4.40;3.90;;;15.10;57.80;;;;;;5106616;28;20989;-80
2021/12/05 16:58:06;;;;;;;3.80;3.50;;;15.10;57.70;;;;;;5106794;28;20440;-80
2021/12/05 17:00:38;;;;;;;4.33;3.70;;;15.10;57.80;;;;;;5108749;28;20499;-80
2021/12/05 17:03:07;;;;;;;4.80;3.70;;;15.10;57.80;;;;;;5105071;28;20464;-80
2021/12/05 17:05:39;;;;;;;5.63;4.00;;;15.10;58.30;;;;;;5107951;28;20523;-80
2021/12/05 17:08:13;;;;;;;5.47;3.80;;;15.10;57.90;;;;;;5087878;28;20520;-85
2021/12/05 17:10:44;;;;;;;7.63;3.83;;;15.10;57.80;;;;;;5092847;28;20446;-82
2021/12/05 17:13:15;;;;;;;4.70;3.80;;;15.10;57.80;;;;;;5084078;28;20496;-81